Taynuilt, United Kingdom
Current Conditions -  °F | °C
As of 9:50 AM on Friday 31 Oct 2014 (Local Time) from EGPF Reporting Station
Broken Clouds Broken Clouds  
Wind Chill: 63°   Ceiling: 2400
Heat Index: 63°   Visibility: 6mi
Dew Point: 57°   Wind: 18mph
Humidity: 82%   Direction: 190°S
Pressure: 29.74"   Gusts: NA
Location:  56.37°N, 5.18°W
Report Text: EGPF 310950Z AUTO 19016KT 9999 BKN024 17/14 Q1007
Loading
Personal Weather Stations






























Interactive Weather Map
Tropical Storm Tracking
New forecast layout! Learn more

10-Day Weather Forecast

Advertisements
Track Severe Weather on mobile